sensor_id;sensor_type;location;lat;lon;timestamp;temperature;humidity
7646;DHT22;3864;48.180;14.178;2024-02-16T00:00:43;2.50;99.90
7646;DHT22;3864;48.180;14.178;2024-02-16T00:03:15;2.50;99.90
7646;DHT22;3864;48.180;14.178;2024-02-16T00:09:09;2.40;99.90
7646;DHT22;3864;48.180;14.178;2024-02-16T00:11:36;2.40;99.90
7646;DHT22;3864;48.180;14.178;2024-02-16T00:14:05;2.40;99.90
7646;DHT22;3864;48.180;14.178;2024-02-16T00:16:32;2.40;99.90
7646;DHT22;3864;48.180;14.178;2024-02-16T00:19:00;2.40;99.90
7646;DHT22;3864;48.180;14.178;2024-02-16T00:21:27;2.30;99.90
7646;DHT22;3864;48.180;14.178;2024-02-16T00:23:55;2.20;99.90
7646;DHT22;3864;48.180;14.178;2024-02-16T00:26:22;2.10;99.90
7646;DHT22;3864;48.180;14.178;2024-02-16T00:28:49;2.00;99.90
7646;DHT22;3864;48.180;14.178;2024-02-16T00:31:19;1.90;99.90
7646;DHT22;3864;48.180;14.178;2024-02-16T00:33:46;1.90;99.90
7646;DHT22;3864;48.180;14.178;2024-02-16T00:36:13;1.90;99.90
7646;DHT22;3864;48.180;14.178;2024-02-16T00:38:41;1.90;99.90
7646;DHT22;3864;48.180;14.178;2024-02-16T00:41:07;1.90;99.90
7646;DHT22;3864;48.180;14.178;2024-02-16T00:43:35;1.90;99.90
7646;DHT22;3864;48.180;14.178;2024-02-16T00:46:02;1.80;99.90
7646;DHT22;3864;48.180;14.178;2024-02-16T00:48:31;1.80;99.90
7646;DHT22;3864;48.180;14.178;2024-02-16T00:50:58;1.80;99.90
7646;DHT22;3864;48.180;14.178;2024-02-16T00:53:25;1.80;99.90
7646;DHT22;3864;48.180;14.178;2024-02-16T00:55:52;1.90;99.90
7646;DHT22;3864;48.180;14.178;2024-02-16T00:58:19;1.90;99.90
7646;DHT22;3864;48.180;14.178;2024-02-16T01:00:48;1.90;99.90
7646;DHT22;3864;48.180;14.178;2024-02-16T01:03:15;1.90;99.90
7646;DHT22;3864;48.180;14.178;2024-02-16T01:05:44;1.90;99.90
7646;DHT22;3864;48.180;14.178;2024-02-16T01:08:11;1.90;99.90
7646;DHT22;3864;48.180;14.178;2024-02-16T01:10:38;1.90;99.90
7646;DHT22;3864;48.180;14.178;2024-02-16T01:13:05;1.90;99.90
7646;DHT22;3864;48.180;14.178;2024-02-16T01:15:32;1.90;99.90
7646;DHT22;3864;48.180;14.178;2024-02-16T01:17:59;1.80;99.90
7646;DHT22;3864;48.180;14.178;2024-02-16T01:20:26;1.80;99.90
7646;DHT22;3864;48.180;14.178;2024-02-16T01:22:58;1.80;99.90
7646;DHT22;3864;48.180;14.178;2024-02-16T01:25:25;1.80;99.90
7646;DHT22;3864;48.180;14.178;2024-02-16T01:27:52;1.80;99.90
7646;DHT22;3864;48.180;14.178;2024-02-16T01:30:20;1.80;99.90
7646;DHT22;3864;48.180;14.178;2024-02-16T01:32:47;1.70;99.90
7646;DHT22;3864;48.180;14.178;2024-02-16T01:35:14;1.70;99.90
7646;DHT22;3864;48.180;14.178;2024-02-16T01:37:41;1.60;99.90
7646;DHT22;3864;48.180;14.178;2024-02-16T01:40:11;1.60;99.90
7646;DHT22;3864;48.180;14.178;2024-02-16T01:42:40;1.80;99.90
7646;DHT22;3864;48.180;14.178;2024-02-16T01:45:08;1.70;99.90
7646;DHT22;3864;48.180;14.178;2024-02-16T01:47:36;1.70;99.90
7646;DHT22;3864;48.180;14.178;2024-02-16T01:50:05;1.70;99.90
7646;DHT22;3864;48.180;14.178;2024-02-16T01:52:33;1.60;99.90
7646;DHT22;3864;48.180;14.178;2024-02-16T01:55:02;1.60;99.90
7646;DHT22;3864;48.180;14.178;2024-02-16T01:57:31;1.60;99.90
7646;DHT22;3864;48.180;14.178;2024-02-16T01:59:58;1.70;99.90
7646;DHT22;3864;48.180;14.178;2024-02-16T02:02:27;1.80;99.90
7646;DHT22;3864;48.180;14.178;2024-02-16T02:04:54;1.90;99.90
7646;DHT22;3864;48.180;14.178;2024-02-16T02:07:26;1.90;99.90
7646;DHT22;3864;48.180;14.178;2024-02-16T02:09:53;1.90;99.90
7646;DHT22;3864;48.180;14.178;2024-02-16T02:12:20;1.90;99.90
7646;DHT22;3864;48.180;14.178;2024-02-16T02:14:49;1.90;99.90
7646;DHT22;3864;48.180;14.178;2024-02-16T02:17:17;1.90;99.90
7646;DHT22;3864;48.180;14.178;2024-02-16T02:19:45;2.00;99.90
7646;DHT22;3864;48.180;14.178;2024-02-16T02:22:15;1.70;99.90
7646;DHT22;3864;48.180;14.178;2024-02-16T02:24:43;1.50;99.90
7646;DHT22;3864;48.180;14.178;2024-02-16T02:27:11;1.40;99.90
7646;DHT22;3864;48.180;14.178;2024-02-16T02:29:39;1.20;99.90
7646;DHT22;3864;48.180;14.178;2024-02-16T02:32:06;1.10;99.90
7646;DHT22;3864;48.180;14.178;2024-02-16T02:34:34;1.10;99.90
7646;DHT22;3864;48.180;14.178;2024-02-16T02:37:02;1.10;99.90
7646;DHT22;3864;48.180;14.178;2024-02-16T02:39:31;1.10;99.90
7646;DHT22;3864;48.180;14.178;2024-02-16T02:41:58;1.10;99.90
7646;DHT22;3864;48.180;14.178;2024-02-16T02:44:25;1.20;99.90
7646;DHT22;3864;48.180;14.178;2024-02-16T02:46:52;1.30;99.90
7646;DHT22;3864;48.180;14.178;2024-02-16T02:49:19;1.30;99.90
7646;DHT22;3864;48.180;14.178;2024-02-16T02:51:46;1.30;99.90
7646;DHT22;3864;48.180;14.178;2024-02-16T02:54:13;1.30;99.90
7646;DHT22;3864;48.180;14.178;2024-02-16T02:56:43;1.30;99.90
7646;DHT22;3864;48.180;14.178;2024-02-16T02:59:10;1.20;99.90
7646;DHT22;3864;48.180;14.178;2024-02-16T03:01:37;1.20;99.90
7646;DHT22;3864;48.180;14.178;2024-02-16T03:04:04;1.00;99.90
7646;DHT22;3864;48.180;14.178;2024-02-16T03:06:31;0.90;99.90
7646;DHT22;3864;48.180;14.178;2024-02-16T03:08:58;0.80;99.90
7646;DHT22;3864;48.180;14.178;2024-02-16T03:11:25;0.70;99.90
7646;DHT22;3864;48.180;14.178;2024-02-16T03:13:54;0.70;99.90
7646;DHT22;3864;48.180;14.178;2024-02-16T03:16:22;0.60;99.90
7646;DHT22;3864;48.180;14.178;2024-02-16T03:18:49;0.60;99.90
7646;DHT22;3864;48.180;14.178;2024-02-16T03:21:16;0.60;99.90
7646;DHT22;3864;48.180;14.178;2024-02-16T03:23:43;0.60;99.90
7646;DHT22;3864;48.180;14.178;2024-02-16T03:26:16;0.60;99.90
7646;DHT22;3864;48.180;14.178;2024-02-16T03:28:44;0.60;99.90
7646;DHT22;3864;48.180;14.178;2024-02-16T03:31:20;0.50;99.90
7646;DHT22;3864;48.180;14.178;2024-02-16T03:33:47;0.50;99.90
7646;DHT22;3864;48.180;14.178;2024-02-16T03:36:15;0.40;99.90
7646;DHT22;3864;48.180;14.178;2024-02-16T03:38:42;0.40;99.90
7646;DHT22;3864;48.180;14.178;2024-02-16T03:41:13;0.50;99.90
7646;DHT22;3864;48.180;14.178;2024-02-16T03:43:42;0.60;99.90
7646;DHT22;3864;48.180;14.178;2024-02-16T03:46:09;0.70;99.90
7646;DHT22;3864;48.180;14.178;2024-02-16T03:48:40;0.80;99.90
7646;DHT22;3864;48.180;14.178;2024-02-16T03:51:07;0.80;99.90
7646;DHT22;3864;48.180;14.178;2024-02-16T03:53:34;0.90;99.90
7646;DHT22;3864;48.180;14.178;2024-02-16T03:56:01;0.90;99.90
7646;DHT22;3864;48.180;14.178;2024-02-16T03:58:31;0.90;99.90
7646;DHT22;3864;48.180;14.178;2024-02-16T04:00:58;0.70;99.90
7646;DHT22;3864;48.180;14.178;2024-02-16T04:03:25;0.80;99.90
7646;DHT22;3864;48.180;14.178;2024-02-16T04:05:54;0.80;99.90
7646;DHT22;3864;48.180;14.178;2024-02-16T04:08:21;0.70;99.90
7646;DHT22;3864;48.180;14.178;2024-02-16T04:10:48;0.60;99.90
7646;DHT22;3864;48.180;14.178;2024-02-16T04:13:15;0.50;99.90
7646;DHT22;3864;48.180;14.178;2024-02-16T04:15:42;0.50;99.90
7646;DHT22;3864;48.180;14.178;2024-02-16T04:18:09;0.40;99.90
7646;DHT22;3864;48.180;14.178;2024-02-16T04:20:36;0.30;99.90
7646;DHT22;3864;48.180;14.178;2024-02-16T04:23:05;0.30;99.90
7646;DHT22;3864;48.180;14.178;2024-02-16T04:25:32;0.20;99.90
7646;DHT22;3864;48.180;14.178;2024-02-16T04:27:59;0.20;99.90
7646;DHT22;3864;48.180;14.178;2024-02-16T04:30:26;0.20;99.90
7646;DHT22;3864;48.180;14.178;2024-02-16T04:32:53;0.10;99.90
7646;DHT22;3864;48.180;14.178;2024-02-16T04:35:20;0.00;99.90
7646;DHT22;3864;48.180;14.178;2024-02-16T04:37:47;0.00;99.90
7646;DHT22;3864;48.180;14.178;2024-02-16T04:40:17;0.00;99.90
7646;DHT22;3864;48.180;14.178;2024-02-16T04:42:44;-0.10;99.90
7646;DHT22;3864;48.180;14.178;2024-02-16T04:45:11;-0.20;99.90
7646;DHT22;3864;48.180;14.178;2024-02-16T04:47:39;-0.20;99.90
7646;DHT22;3864;48.180;14.178;2024-02-16T04:50:07;-0.30;99.90
7646;DHT22;3864;48.180;14.178;2024-02-16T04:52:37;-0.40;99.90
7646;DHT22;3864;48.180;14.178;2024-02-16T04:55:06;-0.40;99.90
7646;DHT22;3864;48.180;14.178;2024-02-16T04:57:35;-0.40;99.90
7646;DHT22;3864;48.180;14.178;2024-02-16T05:00:03;-0.40;99.90
7646;DHT22;3864;48.180;14.178;2024-02-16T05:02:31;-0.40;99.90
7646;DHT22;3864;48.180;14.178;2024-02-16T05:04:58;-0.40;99.90
7646;DHT22;3864;48.180;14.178;2024-02-16T05:07:24;-0.30;99.90
7646;DHT22;3864;48.180;14.178;2024-02-16T05:09:52;-0.30;99.90
7646;DHT22;3864;48.180;14.178;2024-02-16T05:12:23;-0.30;99.90
7646;DHT22;3864;48.180;14.178;2024-02-16T05:14:52;-0.30;99.90
7646;DHT22;3864;48.180;14.178;2024-02-16T05:17:19;-0.30;99.90
7646;DHT22;3864;48.180;14.178;2024-02-16T05:19:48;-0.30;99.90
7646;DHT22;3864;48.180;14.178;2024-02-16T05:22:15;-0.20;99.90
7646;DHT22;3864;48.180;14.178;2024-02-16T05:24:43;-0.10;99.90
7646;DHT22;3864;48.180;14.178;2024-02-16T05:27:10;-0.10;99.90
7646;DHT22;3864;48.180;14.178;2024-02-16T05:29:37;0.00;99.90
7646;DHT22;3864;48.180;14.178;2024-02-16T05:32:06;0.00;99.90
7646;DHT22;3864;48.180;14.178;2024-02-16T05:34:33;0.20;99.90
7646;DHT22;3864;48.180;14.178;2024-02-16T05:37:04;0.30;99.90
7646;DHT22;3864;48.180;14.178;2024-02-16T05:39:33;0.40;99.90
7646;DHT22;3864;48.180;14.178;2024-02-16T05:42:02;0.50;99.90
7646;DHT22;3864;48.180;14.178;2024-02-16T05:44:29;0.70;99.90
7646;DHT22;3864;48.180;14.178;2024-02-16T05:46:58;0.80;99.90
7646;DHT22;3864;48.180;14.178;2024-02-16T05:49:26;1.00;99.90
7646;DHT22;3864;48.180;14.178;2024-02-16T05:51:54;1.10;99.90
7646;DHT22;3864;48.180;14.178;2024-02-16T05:54:41;1.10;99.90
7646;DHT22;3864;48.180;14.178;2024-02-16T05:57:07;1.20;99.90
7646;DHT22;3864;48.180;14.178;2024-02-16T05:59:35;1.30;99.90
7646;DHT22;3864;48.180;14.178;2024-02-16T06:02:04;1.30;99.90
7646;DHT22;3864;48.180;14.178;2024-02-16T06:04:33;1.40;99.90
7646;DHT22;3864;48.180;14.178;2024-02-16T06:07:00;1.40;99.90
7646;DHT22;3864;48.180;14.178;2024-02-16T06:09:27;1.50;99.90
7646;DHT22;3864;48.180;14.178;2024-02-16T06:12:01;1.50;99.90
7646;DHT22;3864;48.180;14.178;2024-02-16T06:14:30;1.60;99.90
7646;DHT22;3864;48.180;14.178;2024-02-16T06:16:58;1.70;99.90
7646;DHT22;3864;48.180;14.178;2024-02-16T06:19:25;1.80;99.90
7646;DHT22;3864;48.180;14.178;2024-02-16T06:21:54;2.00;99.90
7646;DHT22;3864;48.180;14.178;2024-02-16T06:24:22;2.20;99.90
7646;DHT22;3864;48.180;14.178;2024-02-16T06:26:49;2.30;99.90
7646;DHT22;3864;48.180;14.178;2024-02-16T06:29:17;2.30;99.90
7646;DHT22;3864;48.180;14.178;2024-02-16T06:31:45;2.40;99.90
7646;DHT22;3864;48.180;14.178;2024-02-16T06:34:13;2.50;99.90
7646;DHT22;3864;48.180;14.178;2024-02-16T06:36:40;2.70;99.90
7646;DHT22;3864;48.180;14.178;2024-02-16T06:39:09;2.90;99.90
7646;DHT22;3864;48.180;14.178;2024-02-16T06:41:36;3.00;99.90
7646;DHT22;3864;48.180;14.178;2024-02-16T06:44:04;3.10;99.90
7646;DHT22;3864;48.180;14.178;2024-02-16T06:46:32;3.20;99.90
7646;DHT22;3864;48.180;14.178;2024-02-16T06:48:59;3.40;99.90
7646;DHT22;3864;48.180;14.178;2024-02-16T06:51:26;3.40;99.90
7646;DHT22;3864;48.180;14.178;2024-02-16T06:53:54;3.50;99.90
7646;DHT22;3864;48.180;14.178;2024-02-16T06:56:23;3.60;99.90
7646;DHT22;3864;48.180;14.178;2024-02-16T06:58:51;3.70;99.90
7646;DHT22;3864;48.180;14.178;2024-02-16T07:01:18;3.70;99.90
7646;DHT22;3864;48.180;14.178;2024-02-16T07:03:45;3.80;99.90
7646;DHT22;3864;48.180;14.178;2024-02-16T07:06:12;3.90;99.90
7646;DHT22;3864;48.180;14.178;2024-02-16T07:08:40;3.90;99.90
7646;DHT22;3864;48.180;14.178;2024-02-16T07:11:07;4.00;99.90
7646;DHT22;3864;48.180;14.178;2024-02-16T07:13:38;4.00;99.90
7646;DHT22;3864;48.180;14.178;2024-02-16T07:16:06;4.10;99.90
7646;DHT22;3864;48.180;14.178;2024-02-16T07:18:33;4.20;99.90
7646;DHT22;3864;48.180;14.178;2024-02-16T07:21:01;4.20;99.90
7646;DHT22;3864;48.180;14.178;2024-02-16T07:23:29;4.30;99.90
7646;DHT22;3864;48.180;14.178;2024-02-16T07:25:56;4.40;99.90
7646;DHT22;3864;48.180;14.178;2024-02-16T07:28:24;4.50;99.90
7646;DHT22;3864;48.180;14.178;2024-02-16T07:30:53;4.50;99.90
7646;DHT22;3864;48.180;14.178;2024-02-16T07:33:20;4.60;99.90
7646;DHT22;3864;48.180;14.178;2024-02-16T07:35:50;4.60;99.90
7646;DHT22;3864;48.180;14.178;2024-02-16T07:38:17;4.60;99.90
7646;DHT22;3864;48.180;14.178;2024-02-16T07:40:44;4.60;99.90
7646;DHT22;3864;48.180;14.178;2024-02-16T07:43:12;4.70;99.90
7646;DHT22;3864;48.180;14.178;2024-02-16T07:45:39;4.70;99.90
7646;DHT22;3864;48.180;14.178;2024-02-16T07:48:08;4.70;99.90
7646;DHT22;3864;48.180;14.178;2024-02-16T07:50:35;4.80;99.90
7646;DHT22;3864;48.180;14.178;2024-02-16T07:53:02;4.80;99.90
7646;DHT22;3864;48.180;14.178;2024-02-16T07:55:30;4.80;99.90
7646;DHT22;3864;48.180;14.178;2024-02-16T07:57:57;4.80;99.90
7646;DHT22;3864;48.180;14.178;2024-02-16T08:00:25;4.80;99.90
7646;DHT22;3864;48.180;14.178;2024-02-16T08:02:53;4.80;99.90
7646;DHT22;3864;48.180;14.178;2024-02-16T08:05:22;4.80;99.90
7646;DHT22;3864;48.180;14.178;2024-02-16T08:07:50;4.80;99.90
7646;DHT22;3864;48.180;14.178;2024-02-16T08:10:19;4.80;99.90
7646;DHT22;3864;48.180;14.178;2024-02-16T08:12:47;4.90;99.90
7646;DHT22;3864;48.180;14.178;2024-02-16T08:15:14;4.90;99.90
7646;DHT22;3864;48.180;14.178;2024-02-16T08:17:41;5.00;99.90
7646;DHT22;3864;48.180;14.178;2024-02-16T08:20:08;5.10;99.90
7646;DHT22;3864;48.180;14.178;2024-02-16T08:22:37;5.20;99.90
7646;DHT22;3864;48.180;14.178;2024-02-16T08:25:04;5.20;99.90
7646;DHT22;3864;48.180;14.178;2024-02-16T08:27:31;5.10;99.90
7646;DHT22;3864;48.180;14.178;2024-02-16T08:29:59;5.30;99.90
7646;DHT22;3864;48.180;14.178;2024-02-16T08:32:27;5.40;99.90
7646;DHT22;3864;48.180;14.178;2024-02-16T08:34:55;5.60;99.90
7646;DHT22;3864;48.180;14.178;2024-02-16T08:37:24;5.50;99.90
7646;DHT22;3864;48.180;14.178;2024-02-16T08:39:53;5.20;99.90
7646;DHT22;3864;48.180;14.178;2024-02-16T08:42:20;5.40;99.90
7646;DHT22;3864;48.180;14.178;2024-02-16T08:44:49;5.50;99.90
7646;DHT22;3864;48.180;14.178;2024-02-16T08:47:16;5.60;99.90
7646;DHT22;3864;48.180;14.178;2024-02-16T08:49:43;5.80;99.90
7646;DHT22;3864;48.180;14.178;2024-02-16T08:52:10;5.60;99.90
7646;DHT22;3864;48.180;14.178;2024-02-16T08:54:37;5.70;99.90
7646;DHT22;3864;48.180;14.178;2024-02-16T08:57:06;5.90;99.90
7646;DHT22;3864;48.180;14.178;2024-02-16T08:59:33;6.20;99.90
7646;DHT22;3864;48.180;14.178;2024-02-16T09:02:01;6.20;99.90
7646;DHT22;3864;48.180;14.178;2024-02-16T09:04:28;6.20;99.90
7646;DHT22;3864;48.180;14.178;2024-02-16T09:06:55;6.20;99.90
7646;DHT22;3864;48.180;14.178;2024-02-16T09:09:22;6.10;99.90
7646;DHT22;3864;48.180;14.178;2024-02-16T09:11:49;6.20;99.90
7646;DHT22;3864;48.180;14.178;2024-02-16T09:14:18;6.20;99.90
7646;DHT22;3864;48.180;14.178;2024-02-16T09:16:48;6.40;99.90
7646;DHT22;3864;48.180;14.178;2024-02-16T09:19:15;6.40;99.90
7646;DHT22;3864;48.180;14.178;2024-02-16T09:21:48;6.50;99.90
7646;DHT22;3864;48.180;14.178;2024-02-16T09:24:20;6.50;99.90
7646;DHT22;3864;48.180;14.178;2024-02-16T09:26:48;6.80;99.90
7646;DHT22;3864;48.180;14.178;2024-02-16T09:29:15;6.80;99.90
7646;DHT22;3864;48.180;14.178;2024-02-16T09:31:48;7.00;99.90
7646;DHT22;3864;48.180;14.178;2024-02-16T09:34:17;7.20;99.90
7646;DHT22;3864;48.180;14.178;2024-02-16T09:36:45;7.50;99.90
7646;DHT22;3864;48.180;14.178;2024-02-16T09:39:43;7.70;99.90
7646;DHT22;3864;48.180;14.178;2024-02-16T09:42:53;8.30;99.90
7646;DHT22;3864;48.180;14.178;2024-02-16T09:45:46;8.20;99.90
7646;DHT22;3864;48.180;14.178;2024-02-16T09:48:32;7.90;99.90
7646;DHT22;3864;48.180;14.178;2024-02-16T09:51:00;7.70;99.90
7646;DHT22;3864;48.180;14.178;2024-02-16T09:53:36;8.20;99.90
7646;DHT22;3864;48.180;14.178;2024-02-16T09:56:05;8.00;99.90
7646;DHT22;3864;48.180;14.178;2024-02-16T09:58:34;8.30;99.90
7646;DHT22;3864;48.180;14.178;2024-02-16T10:01:02;8.30;99.90
7646;DHT22;3864;48.180;14.178;2024-02-16T10:03:35;8.70;99.90
7646;DHT22;3864;48.180;14.178;2024-02-16T10:09:22;8.80;99.90
7646;DHT22;3864;48.180;14.178;2024-02-16T10:11:59;8.80;99.90
7646;DHT22;3864;48.180;14.178;2024-02-16T10:14:27;8.30;99.90
7646;DHT22;3864;48.180;14.178;2024-02-16T10:17:01;8.50;99.90
7646;DHT22;3864;48.180;14.178;2024-02-16T10:19:38;8.80;99.90
7646;DHT22;3864;48.180;14.178;2024-02-16T10:22:07;8.70;99.90
7646;DHT22;3864;48.180;14.178;2024-02-16T10:24:35;8.80;99.90
7646;DHT22;3864;48.180;14.178;2024-02-16T10:27:06;9.10;99.90
7646;DHT22;3864;48.180;14.178;2024-02-16T10:29:34;9.00;99.90
7646;DHT22;3864;48.180;14.178;2024-02-16T10:32:03;9.00;99.90
7646;DHT22;3864;48.180;14.178;2024-02-16T10:34:57;8.80;99.90
7646;DHT22;3864;48.180;14.178;2024-02-16T10:40:31;8.60;99.90
7646;DHT22;3864;48.180;14.178;2024-02-16T10:43:06;8.30;99.90
7646;DHT22;3864;48.180;14.178;2024-02-16T10:45:34;8.30;99.90
7646;DHT22;3864;48.180;14.178;2024-02-16T10:48:04;8.20;99.90
7646;DHT22;3864;48.180;14.178;2024-02-16T10:50:38;8.20;99.90
7646;DHT22;3864;48.180;14.178;2024-02-16T10:53:12;8.10;99.90
7646;DHT22;3864;48.180;14.178;2024-02-16T10:55:45;8.30;99.90
7646;DHT22;3864;48.180;14.178;2024-02-16T10:58:17;8.60;99.90
7646;DHT22;3864;48.180;14.178;2024-02-16T11:02:02;8.70;99.90
7646;DHT22;3864;48.180;14.178;2024-02-16T11:04:35;8.80;99.90
7646;DHT22;3864;48.180;14.178;2024-02-16T11:14:20;8.70;99.90
7646;DHT22;3864;48.180;14.178;2024-02-16T11:16:54;8.50;99.90
7646;DHT22;3864;48.180;14.178;2024-02-16T11:19:29;8.50;99.90
7646;DHT22;3864;48.180;14.178;2024-02-16T11:25:18;8.40;99.90
7646;DHT22;3864;48.180;14.178;2024-02-16T11:27:46;8.40;99.90
7646;DHT22;3864;48.180;14.178;2024-02-16T11:30:16;8.50;99.90
7646;DHT22;3864;48.180;14.178;2024-02-16T11:32:43;8.60;99.90
7646;DHT22;3864;48.180;14.178;2024-02-16T11:35:14;8.80;99.90
7646;DHT22;3864;48.180;14.178;2024-02-16T11:37:42;9.20;99.90
7646;DHT22;3864;48.180;14.178;2024-02-16T11:40:12;9.40;99.90
7646;DHT22;3864;48.180;14.178;2024-02-16T11:42:39;9.30;99.90
7646;DHT22;3864;48.180;14.178;2024-02-16T11:45:10;9.50;99.90
7646;DHT22;3864;48.180;14.178;2024-02-16T11:47:51;9.60;99.90
7646;DHT22;3864;48.180;14.178;2024-02-16T11:50:18;9.60;99.90
7646;DHT22;3864;48.180;14.178;2024-02-16T11:52:47;9.50;99.90
7646;DHT22;3864;48.180;14.178;2024-02-16T11:55:14;9.30;99.90
7646;DHT22;3864;48.180;14.178;2024-02-16T11:57:42;9.20;99.90
7646;DHT22;3864;48.180;14.178;2024-02-16T12:00:12;9.00;99.90
7646;DHT22;3864;48.180;14.178;2024-02-16T12:02:42;9.10;99.90
7646;DHT22;3864;48.180;14.178;2024-02-16T12:05:14;9.10;99.90
7646;DHT22;3864;48.180;14.178;2024-02-16T12:07:53;9.10;99.90
7646;DHT22;3864;48.180;14.178;2024-02-16T12:10:27;9.10;99.90
7646;DHT22;3864;48.180;14.178;2024-02-16T12:12:55;9.10;99.90
7646;DHT22;3864;48.180;14.178;2024-02-16T12:15:23;9.10;99.90
7646;DHT22;3864;48.180;14.178;2024-02-16T12:18:00;9.20;99.90
7646;DHT22;3864;48.180;14.178;2024-02-16T12:20:29;9.30;99.90
7646;DHT22;3864;48.180;14.178;2024-02-16T12:22:57;9.50;99.90
7646;DHT22;3864;48.180;14.178;2024-02-16T12:25:25;9.50;99.90
7646;DHT22;3864;48.180;14.178;2024-02-16T12:27:52;9.50;99.90
7646;DHT22;3864;48.180;14.178;2024-02-16T12:30:19;9.60;99.90
7646;DHT22;3864;48.180;14.178;2024-02-16T12:32:46;9.60;99.90
7646;DHT22;3864;48.180;14.178;2024-02-16T12:35:15;9.30;99.90
7646;DHT22;3864;48.180;14.178;2024-02-16T12:37:42;9.30;99.90
7646;DHT22;3864;48.180;14.178;2024-02-16T12:40:10;9.20;99.90
7646;DHT22;3864;48.180;14.178;2024-02-16T12:42:48;9.20;99.90
7646;DHT22;3864;48.180;14.178;2024-02-16T12:45:21;9.20;99.90
7646;DHT22;3864;48.180;14.178;2024-02-16T12:47:49;9.30;99.90
7646;DHT22;3864;48.180;14.178;2024-02-16T12:50:21;9.40;99.90
7646;DHT22;3864;48.180;14.178;2024-02-16T12:53:08;9.50;99.90
7646;DHT22;3864;48.180;14.178;2024-02-16T12:55:35;9.50;99.90
7646;DHT22;3864;48.180;14.178;2024-02-16T12:58:05;9.40;99.90
7646;DHT22;3864;48.180;14.178;2024-02-16T13:00:32;9.40;99.90
7646;DHT22;3864;48.180;14.178;2024-02-16T13:03:00;9.40;99.90
7646;DHT22;3864;48.180;14.178;2024-02-16T13:05:31;9.60;99.90
7646;DHT22;3864;48.180;14.178;2024-02-16T13:08:06;9.60;99.90
7646;DHT22;3864;48.180;14.178;2024-02-16T13:10:33;9.60;99.90
7646;DHT22;3864;48.180;14.178;2024-02-16T13:13:01;9.60;99.90
7646;DHT22;3864;48.180;14.178;2024-02-16T13:15:29;9.50;99.90
7646;DHT22;3864;48.180;14.178;2024-02-16T13:17:56;9.60;99.90
7646;DHT22;3864;48.180;14.178;2024-02-16T13:20:33;9.50;99.90
7646;DHT22;3864;48.180;14.178;2024-02-16T13:23:04;9.50;99.90
7646;DHT22;3864;48.180;14.178;2024-02-16T13:25:32;9.50;99.90
7646;DHT22;3864;48.180;14.178;2024-02-16T13:28:16;9.40;99.90
7646;DHT22;3864;48.180;14.178;2024-02-16T13:30:48;9.60;99.90
7646;DHT22;3864;48.180;14.178;2024-02-16T13:33:23;9.60;99.90
7646;DHT22;3864;48.180;14.178;2024-02-16T13:35:52;9.50;99.90
7646;DHT22;3864;48.180;14.178;2024-02-16T13:38:20;9.60;99.90
7646;DHT22;3864;48.180;14.178;2024-02-16T13:40:56;9.70;99.90
7646;DHT22;3864;48.180;14.178;2024-02-16T13:43:24;9.80;99.90
7646;DHT22;3864;48.180;14.178;2024-02-16T13:46:04;9.90;99.90
7646;DHT22;3864;48.180;14.178;2024-02-16T13:48:31;10.00;99.90
7646;DHT22;3864;48.180;14.178;2024-02-16T13:51:00;10.00;99.90
7646;DHT22;3864;48.180;14.178;2024-02-16T13:53:28;10.00;99.90
7646;DHT22;3864;48.180;14.178;2024-02-16T13:55:55;9.90;99.90
7646;DHT22;3864;48.180;14.178;2024-02-16T13:58:26;10.00;99.90
7646;DHT22;3864;48.180;14.178;2024-02-16T14:00:54;10.00;99.90
7646;DHT22;3864;48.180;14.178;2024-02-16T14:03:21;10.10;99.90
7646;DHT22;3864;48.180;14.178;2024-02-16T14:05:48;10.10;99.90
7646;DHT22;3864;48.180;14.178;2024-02-16T14:08:20;10.10;99.90
7646;DHT22;3864;48.180;14.178;2024-02-16T14:10:56;10.10;99.90
7646;DHT22;3864;48.180;14.178;2024-02-16T14:13:45;10.10;99.90
7646;DHT22;3864;48.180;14.178;2024-02-16T14:16:12;10.40;99.90
7646;DHT22;3864;48.180;14.178;2024-02-16T14:18:39;10.40;99.90
7646;DHT22;3864;48.180;14.178;2024-02-16T14:21:13;10.30;99.90
7646;DHT22;3864;48.180;14.178;2024-02-16T14:23:50;10.30;99.90
7646;DHT22;3864;48.180;14.178;2024-02-16T14:26:17;10.20;99.90
7646;DHT22;3864;48.180;14.178;2024-02-16T14:28:45;10.20;99.90
7646;DHT22;3864;48.180;14.178;2024-02-16T14:31:12;10.20;99.90
7646;DHT22;3864;48.180;14.178;2024-02-16T14:33:40;10.20;99.90
7646;DHT22;3864;48.180;14.178;2024-02-16T14:36:09;10.10;99.90
7646;DHT22;3864;48.180;14.178;2024-02-16T14:38:37;9.90;99.90
7646;DHT22;3864;48.180;14.178;2024-02-16T14:41:05;9.90;99.90
7646;DHT22;3864;48.180;14.178;2024-02-16T14:43:33;9.90;99.90
7646;DHT22;3864;48.180;14.178;2024-02-16T14:46:06;9.80;99.90
7646;DHT22;3864;48.180;14.178;2024-02-16T14:48:34;9.70;99.90
7646;DHT22;3864;48.180;14.178;2024-02-16T14:51:03;9.50;99.90
7646;DHT22;3864;48.180;14.178;2024-02-16T14:53:30;9.40;99.90
7646;DHT22;3864;48.180;14.178;2024-02-16T14:55:58;9.30;99.90
7646;DHT22;3864;48.180;14.178;2024-02-16T14:58:27;9.20;99.90
7646;DHT22;3864;48.180;14.178;2024-02-16T15:00:54;9.20;99.90
7646;DHT22;3864;48.180;14.178;2024-02-16T15:03:22;9.20;99.90
7646;DHT22;3864;48.180;14.178;2024-02-16T15:05:51;9.20;99.90
7646;DHT22;3864;48.180;14.178;2024-02-16T15:08:18;9.30;99.90
7646;DHT22;3864;48.180;14.178;2024-02-16T15:10:45;9.30;99.90
7646;DHT22;3864;48.180;14.178;2024-02-16T15:13:13;9.40;99.90
7646;DHT22;3864;48.180;14.178;2024-02-16T15:15:42;9.60;99.90
7646;DHT22;3864;48.180;14.178;2024-02-16T15:18:09;9.70;99.90
7646;DHT22;3864;48.180;14.178;2024-02-16T15:20:36;9.90;99.90
7646;DHT22;3864;48.180;14.178;2024-02-16T15:23:04;10.00;99.90
7646;DHT22;3864;48.180;14.178;2024-02-16T15:25:31;10.00;99.90
7646;DHT22;3864;48.180;14.178;2024-02-16T15:27:58;10.10;99.90
7646;DHT22;3864;48.180;14.178;2024-02-16T15:30:27;10.10;99.90
7646;DHT22;3864;48.180;14.178;2024-02-16T15:32:58;10.10;99.90
7646;DHT22;3864;48.180;14.178;2024-02-16T15:35:25;10.20;99.90
7646;DHT22;3864;48.180;14.178;2024-02-16T15:37:53;10.20;99.90
7646;DHT22;3864;48.180;14.178;2024-02-16T15:40:20;10.20;99.90
7646;DHT22;3864;48.180;14.178;2024-02-16T15:42:59;10.30;99.90
7646;DHT22;3864;48.180;14.178;2024-02-16T15:45:39;10.30;99.90
7646;DHT22;3864;48.180;14.178;2024-02-16T15:48:13;10.30;99.90
7646;DHT22;3864;48.180;14.178;2024-02-16T15:50:42;10.30;99.90
7646;DHT22;3864;48.180;14.178;2024-02-16T15:53:09;10.20;99.90
7646;DHT22;3864;48.180;14.178;2024-02-16T15:55:37;10.10;99.90
7646;DHT22;3864;48.180;14.178;2024-02-16T15:58:05;9.90;99.90
7646;DHT22;3864;48.180;14.178;2024-02-16T16:00:32;9.80;99.90
7646;DHT22;3864;48.180;14.178;2024-02-16T16:03:03;9.60;99.90
7646;DHT22;3864;48.180;14.178;2024-02-16T16:05:34;9.40;99.90
7646;DHT22;3864;48.180;14.178;2024-02-16T16:08:19;9.30;99.90
7646;DHT22;3864;48.180;14.178;2024-02-16T16:10:46;9.10;99.90
7646;DHT22;3864;48.180;14.178;2024-02-16T16:13:17;9.00;99.90
7646;DHT22;3864;48.180;14.178;2024-02-16T16:15:49;8.80;99.90
7646;DHT22;3864;48.180;14.178;2024-02-16T16:18:23;8.70;99.90
7646;DHT22;3864;48.180;14.178;2024-02-16T16:21:09;8.60;99.90
7646;DHT22;3864;48.180;14.178;2024-02-16T16:23:38;8.40;99.90
7646;DHT22;3864;48.180;14.178;2024-02-16T16:26:19;8.30;99.90
7646;DHT22;3864;48.180;14.178;2024-02-16T16:28:54;8.10;99.90
7646;DHT22;3864;48.180;14.178;2024-02-16T16:31:29;8.00;99.90
7646;DHT22;3864;48.180;14.178;2024-02-16T16:34:00;7.90;99.90